createdAt,value
2022-12-31T00:00:51.478Z,11.08
2022-12-31T00:03:19.685Z,11.23
2022-12-31T00:05:49.135Z,10.84
2022-12-31T00:08:17.072Z,11.05
2022-12-31T00:10:45.010Z,11.08
2022-12-31T00:13:14.334Z,11.10
2022-12-31T00:15:43.314Z,10.99
2022-12-31T00:18:13.097Z,10.97
2022-12-31T00:20:42.102Z,11.01
2022-12-31T00:23:11.853Z,11.13
2022-12-31T00:25:39.799Z,11.12
2022-12-31T00:28:07.693Z,10.85
2022-12-31T00:30:35.760Z,11.06
2022-12-31T00:33:03.733Z,11.21
2022-12-31T00:35:31.835Z,11.14
2022-12-31T00:37:59.757Z,11.35
2022-12-31T00:40:29.985Z,11.06
2022-12-31T00:42:57.933Z,11.07
2022-12-31T00:45:25.850Z,11.05
2022-12-31T00:47:54.881Z,11.09
2022-12-31T00:50:22.920Z,11.20
2022-12-31T00:52:52.263Z,11.22
2022-12-31T00:55:21.059Z,11.24
2022-12-31T00:57:50.335Z,11.08
2022-12-31T01:00:18.440Z,11.38
2022-12-31T01:02:46.395Z,11.32
2022-12-31T01:05:15.104Z,11.34
2022-12-31T01:07:43.013Z,11.35
2022-12-31T01:10:11.671Z,11.58
2022-12-31T01:12:40.528Z,11.51
2022-12-31T01:15:10.750Z,11.38
2022-12-31T01:17:38.657Z,11.29
2022-12-31T01:20:07.569Z,11.38
2022-12-31T01:22:35.484Z,11.42
2022-12-31T01:25:03.469Z,11.28
2022-12-31T01:27:31.377Z,11.57
2022-12-31T01:29:59.316Z,11.61
2022-12-31T01:32:28.685Z,11.42
2022-12-31T01:34:56.578Z,11.51
2022-12-31T01:37:24.683Z,11.68
2022-12-31T01:39:52.860Z,11.62
2022-12-31T01:42:20.833Z,11.49
2022-12-31T01:44:56.159Z,11.59
2022-12-31T01:47:34.620Z,11.58
2022-12-31T01:50:07.692Z,11.52
2022-12-31T01:52:38.430Z,11.55
2022-12-31T01:55:09.468Z,11.58
2022-12-31T01:57:38.334Z,11.66
2022-12-31T02:00:08.487Z,11.60
2022-12-31T02:02:37.894Z,11.63
2022-12-31T02:05:12.459Z,11.64
2022-12-31T02:07:40.789Z,11.61
2022-12-31T02:10:09.375Z,11.56
2022-12-31T02:12:37.731Z,11.85
2022-12-31T02:15:07.029Z,11.66
2022-12-31T02:17:38.832Z,11.41
2022-12-31T02:20:42.429Z,11.60
2022-12-31T02:23:34.578Z,11.63
2022-12-31T02:26:38.985Z,11.65
2022-12-31T02:29:36.447Z,11.49
2022-12-31T02:32:09.228Z,11.44
2022-12-31T02:34:39.674Z,11.44
2022-12-31T02:37:12.281Z,11.24
2022-12-31T02:39:40.973Z,11.19
2022-12-31T02:42:08.924Z,11.26
2022-12-31T02:44:38.164Z,11.09
2022-12-31T02:47:18.501Z,11.26
2022-12-31T02:49:54.805Z,10.98
2022-12-31T02:52:29.738Z,10.95
2022-12-31T02:55:03.901Z,11.23
2022-12-31T02:57:37.484Z,10.99
2022-12-31T03:00:25.087Z,11.20
2022-12-31T03:02:55.438Z,11.17
2022-12-31T03:05:29.492Z,11.22
2022-12-31T03:07:57.607Z,11.19
2022-12-31T03:10:25.565Z,11.31
2022-12-31T03:12:52.507Z,11.26
2022-12-31T03:15:22.371Z,11.06
2022-12-31T03:17:57.947Z,11.22
2022-12-31T03:20:47.527Z,11.07
2022-12-31T03:23:19.106Z,11.20
2022-12-31T03:25:46.049Z,11.36
2022-12-31T03:28:15.318Z,11.23
2022-12-31T03:30:45.969Z,11.47
2022-12-31T03:33:15.618Z,11.46
2022-12-31T03:35:45.087Z,11.39
2022-12-31T03:38:13.146Z,11.31
2022-12-31T03:40:42.972Z,11.13
2022-12-31T03:43:10.988Z,11.35
2022-12-31T03:45:39.201Z,11.40
2022-12-31T03:48:08.373Z,11.44
2022-12-31T03:50:37.674Z,11.40
2022-12-31T03:53:05.819Z,11.40
2022-12-31T03:55:33.764Z,11.11
2022-12-31T03:58:01.737Z,11.40
2022-12-31T04:00:29.915Z,11.47
2022-12-31T04:02:57.909Z,11.48
2022-12-31T04:05:26.054Z,11.38
2022-12-31T04:07:55.927Z,11.41
2022-12-31T04:10:24.331Z,11.38
2022-12-31T04:12:52.269Z,11.47
2022-12-31T04:15:21.766Z,11.38
2022-12-31T04:17:49.955Z,11.44
2022-12-31T04:20:18.224Z,11.48
2022-12-31T04:22:46.149Z,11.51
2022-12-31T04:25:15.636Z,11.59
2022-12-31T04:27:44.584Z,11.39
2022-12-31T04:30:13.999Z,11.48
2022-12-31T04:32:42.339Z,11.57
2022-12-31T04:35:11.877Z,11.57
2022-12-31T04:37:39.864Z,11.55
2022-12-31T04:40:09.213Z,11.55
2022-12-31T04:42:38.705Z,11.56
2022-12-31T04:45:07.777Z,11.56
2022-12-31T04:47:35.748Z,11.36
2022-12-31T04:50:03.661Z,11.59
2022-12-31T04:52:34.594Z,11.56
2022-12-31T04:55:07.368Z,11.59
2022-12-31T04:57:35.290Z,11.61
2022-12-31T05:00:05.033Z,11.49
2022-12-31T05:02:33.065Z,11.61
2022-12-31T05:05:01.127Z,11.57
2022-12-31T05:07:29.048Z,11.57
2022-12-31T05:09:56.971Z,11.57
2022-12-31T05:12:24.879Z,11.49
2022-12-31T05:14:52.755Z,11.51
2022-12-31T05:17:22.111Z,11.43
2022-12-31T05:19:50.020Z,11.43
2022-12-31T05:22:32.787Z,11.49
2022-12-31T05:25:01.385Z,11.44
2022-12-31T05:27:31.625Z,11.43
2022-12-31T05:29:59.717Z,11.34
2022-12-31T05:32:29.115Z,11.39
2022-12-31T05:34:57.508Z,11.30
2022-12-31T05:37:25.431Z,11.26
2022-12-31T05:39:53.376Z,11.17
2022-12-31T05:42:21.376Z,11.11
2022-12-31T05:44:49.303Z,11.20
2022-12-31T05:47:18.453Z,11.16
2022-12-31T05:49:47.817Z,11.03
2022-12-31T05:52:15.945Z,11.13
2022-12-31T05:54:43.984Z,11.12
2022-12-31T05:57:11.929Z,11.05
2022-12-31T05:59:39.846Z,11.07
2022-12-31T06:02:07.771Z,10.99
2022-12-31T06:04:35.730Z,11.02
2022-12-31T06:07:04.976Z,10.97
2022-12-31T06:09:32.893Z,10.94
2022-12-31T06:12:00.818Z,10.90
2022-12-31T06:14:28.699Z,10.82
2022-12-31T06:16:56.603Z,10.89
2022-12-31T06:19:24.526Z,10.86
2022-12-31T06:21:52.455Z,10.87
2022-12-31T06:24:21.755Z,10.87
2022-12-31T06:26:49.678Z,10.75
2022-12-31T06:29:17.791Z,10.73
2022-12-31T06:31:45.710Z,10.84
2022-12-31T06:34:13.686Z,10.85
2022-12-31T06:36:41.575Z,10.76
2022-12-31T06:39:09.487Z,10.83
2022-12-31T06:41:38.819Z,10.81
2022-12-31T06:44:07.175Z,10.84
2022-12-31T06:46:35.142Z,10.79
2022-12-31T06:49:03.084Z,10.79
2022-12-31T06:51:31.019Z,10.74
2022-12-31T06:53:59.039Z,10.70
2022-12-31T06:56:34.552Z,10.75
2022-12-31T06:59:05.362Z,10.71
2022-12-31T07:01:43.941Z,10.75
2022-12-31T07:04:40.723Z,10.66
2022-12-31T07:07:11.683Z,10.66
2022-12-31T07:09:44.806Z,10.71
2022-12-31T07:12:23.604Z,10.74
2022-12-31T07:14:58.272Z,10.66
2022-12-31T07:17:31.156Z,10.70
2022-12-31T07:20:02.809Z,10.69
2022-12-31T07:22:31.200Z,10.66
2022-12-31T07:24:59.709Z,10.63
2022-12-31T07:27:59.942Z,10.61
2022-12-31T07:30:35.297Z,10.67
2022-12-31T07:33:30.717Z,10.64
2022-12-31T07:36:07.438Z,10.64
2022-12-31T07:38:39.482Z,10.56
2022-12-31T07:41:13.553Z,10.63
2022-12-31T07:43:50.488Z,10.55
2022-12-31T07:46:25.726Z,10.58
2022-12-31T07:48:54.228Z,10.47
2022-12-31T07:51:22.985Z,10.72
2022-12-31T07:53:50.895Z,10.72
2022-12-31T07:56:18.882Z,10.74
2022-12-31T07:59:00.132Z,10.73
2022-12-31T08:01:36.488Z,10.81
2022-12-31T08:04:09.099Z,10.81
2022-12-31T08:06:41.813Z,10.82
2022-12-31T08:09:17.283Z,10.56
2022-12-31T08:11:48.871Z,10.76
2022-12-31T08:14:17.254Z,10.77
2022-12-31T08:16:47.144Z,10.75
2022-12-31T08:19:24.602Z,10.75
2022-12-31T08:22:02.553Z,10.74
2022-12-31T08:24:36.289Z,10.74
2022-12-31T08:27:07.492Z,10.76
2022-12-31T08:29:37.302Z,10.73
2022-12-31T08:32:11.571Z,10.74
2022-12-31T08:34:45.760Z,10.77
2022-12-31T08:37:17.065Z,10.82
2022-12-31T08:39:57.384Z,10.79
2022-12-31T08:42:31.413Z,10.76
2022-12-31T08:45:05.704Z,10.82
2022-12-31T08:47:43.821Z,10.81
2022-12-31T08:50:15.404Z,10.76
2022-12-31T08:52:43.844Z,10.79
2022-12-31T08:55:15.663Z,10.82
2022-12-31T08:57:47.583Z,10.89
2022-12-31T09:00:17.444Z,10.89
2022-12-31T09:03:11.360Z,10.90
2022-12-31T09:05:55.179Z,10.95
2022-12-31T09:08:29.831Z,10.95
2022-12-31T09:11:00.759Z,11.01
2022-12-31T09:13:36.136Z,11.06
2022-12-31T09:16:11.895Z,11.09
2022-12-31T09:18:43.630Z,11.09
2022-12-31T09:21:12.650Z,11.14
2022-12-31T09:23:41.258Z,11.10
2022-12-31T09:26:15.605Z,11.19
2022-12-31T09:28:49.908Z,11.17
2022-12-31T09:31:19.717Z,11.08
2022-12-31T09:33:52.902Z,11.21
2022-12-31T09:36:24.822Z,11.19
2022-12-31T09:38:55.596Z,11.22
2022-12-31T09:41:36.439Z,11.05
2022-12-31T09:44:37.382Z,11.28
2022-12-31T09:47:37.778Z,11.29
2022-12-31T09:50:22.471Z,11.25
2022-12-31T09:53:06.105Z,11.33
2022-12-31T09:55:38.222Z,11.37
2022-12-31T09:58:19.330Z,11.18
2022-12-31T10:00:51.809Z,11.39
2022-12-31T10:03:35.786Z,11.40
2022-12-31T10:06:16.177Z,11.48
2022-12-31T10:08:56.701Z,11.50
2022-12-31T10:11:30.875Z,11.44
2022-12-31T10:14:09.092Z,11.37
2022-12-31T10:16:50.741Z,11.57
2022-12-31T10:19:49.718Z,11.52
2022-12-31T10:22:35.705Z,11.46
2022-12-31T10:25:20.350Z,11.72
2022-12-31T10:28:12.095Z,11.58
2022-12-31T10:30:49.863Z,11.67
2022-12-31T10:33:19.279Z,11.51
2022-12-31T10:35:55.988Z,11.60
2022-12-31T10:38:31.180Z,11.65
2022-12-31T10:41:58.608Z,11.57
2022-12-31T10:44:59.466Z,11.84
2022-12-31T10:47:58.510Z,11.88
2022-12-31T10:50:58.077Z,11.83
2022-12-31T10:53:47.972Z,11.94
2022-12-31T10:56:54.198Z,11.92
2022-12-31T11:00:03.704Z,12.02
2022-12-31T11:02:52.601Z,12.02
2022-12-31T11:06:06.122Z,11.83
2022-12-31T11:09:04.774Z,12.01
2022-12-31T11:11:36.565Z,12.16
2022-12-31T11:14:29.775Z,11.96
2022-12-31T11:17:17.397Z,12.25
2022-12-31T11:19:50.947Z,12.29
2022-12-31T11:22:33.540Z,12.41
2022-12-31T11:25:20.585Z,12.32
2022-12-31T11:27:58.035Z,12.30
2022-12-31T11:30:30.296Z,12.43
2022-12-31T11:33:12.074Z,12.33
2022-12-31T11:35:51.655Z,12.59
2022-12-31T11:38:24.814Z,12.59
2022-12-31T11:41:01.952Z,12.68
2022-12-31T11:43:35.634Z,12.59
2022-12-31T11:46:18.059Z,12.72
2022-12-31T11:48:55.177Z,12.47
2022-12-31T11:51:38.030Z,12.67
2022-12-31T11:54:41.447Z,12.62
2022-12-31T11:57:19.545Z,12.71
2022-12-31T11:59:47.944Z,13.01
2022-12-31T12:02:27.762Z,12.82
2022-12-31T12:04:57.120Z,12.97
2022-12-31T12:07:25.226Z,12.86
2022-12-31T12:09:54.276Z,12.99
2022-12-31T12:12:23.652Z,13.14
2022-12-31T12:14:55.092Z,13.11
2022-12-31T12:17:31.963Z,13.17
2022-12-31T12:20:03.326Z,13.12
2022-12-31T12:22:32.770Z,13.28
2022-12-31T12:25:04.736Z,13.13
2022-12-31T12:27:35.916Z,13.32
2022-12-31T12:30:11.781Z,13.44
2022-12-31T12:32:39.768Z,13.00
2022-12-31T12:35:20.340Z,13.37
2022-12-31T12:37:48.270Z,13.40
2022-12-31T12:40:22.357Z,13.27
2022-12-31T12:42:53.390Z,13.40
2022-12-31T12:45:23.189Z,13.43
2022-12-31T12:47:56.665Z,13.40
2022-12-31T12:50:27.761Z,12.96
2022-12-31T12:53:08.866Z,12.98
2022-12-31T12:55:42.812Z,13.01
2022-12-31T12:58:22.106Z,13.29
2022-12-31T13:00:54.215Z,13.29
2022-12-31T13:04:33.489Z,13.22
2022-12-31T13:07:09.458Z,13.24
2022-12-31T13:09:50.964Z,13.18
2022-12-31T13:12:24.543Z,13.33
2022-12-31T13:14:59.269Z,13.29
2022-12-31T13:17:49.794Z,13.28
2022-12-31T13:20:27.906Z,13.23
2022-12-31T13:23:02.132Z,13.13
2022-12-31T13:25:37.968Z,13.12
2022-12-31T13:28:09.035Z,13.18
2022-12-31T13:30:41.103Z,13.08
2022-12-31T13:33:16.600Z,13.18
2022-12-31T13:35:48.889Z,13.35
2022-12-31T13:38:22.722Z,13.38
2022-12-31T13:40:59.712Z,13.33
2022-12-31T13:43:39.204Z,13.39
2022-12-31T13:46:17.653Z,13.38
2022-12-31T13:48:55.901Z,13.38
2022-12-31T13:51:31.823Z,13.31
2022-12-31T13:54:03.189Z,13.40
2022-12-31T13:56:36.936Z,13.25
2022-12-31T13:59:07.865Z,13.41
2022-12-31T14:01:41.329Z,13.38
2022-12-31T14:04:15.112Z,13.34
2022-12-31T14:06:46.878Z,13.41
2022-12-31T14:09:20.541Z,13.38
2022-12-31T14:15:05.930Z,13.25
2022-12-31T14:17:42.702Z,13.51
2022-12-31T14:20:20.676Z,13.26
2022-12-31T14:22:56.368Z,13.55
2022-12-31T14:25:29.966Z,13.51
2022-12-31T14:28:02.417Z,13.47
2022-12-31T14:30:40.516Z,13.57
2022-12-31T14:33:45.946Z,13.72
2022-12-31T14:36:27.303Z,13.42
2022-12-31T14:39:11.654Z,13.53
2022-12-31T14:41:46.563Z,13.52
2022-12-31T14:44:25.826Z,13.43
2022-12-31T14:47:04.837Z,13.45
2022-12-31T14:49:43.268Z,13.66
2022-12-31T14:52:22.503Z,13.66
2022-12-31T14:55:04.887Z,13.16
2022-12-31T14:58:27.904Z,13.38
2022-12-31T15:01:03.656Z,13.41
2022-12-31T15:03:42.979Z,13.27
2022-12-31T15:06:36.723Z,13.49
2022-12-31T15:09:10.771Z,13.48
2022-12-31T15:11:59.254Z,13.37
2022-12-31T15:14:40.184Z,13.44
2022-12-31T15:17:16.601Z,13.45
2022-12-31T15:20:17.649Z,13.31
2022-12-31T15:22:48.204Z,13.15
2022-12-31T15:25:22.807Z,13.40
2022-12-31T15:27:51.175Z,13.32
2022-12-31T15:30:35.832Z,13.30
2022-12-31T15:33:06.331Z,13.32
2022-12-31T15:35:47.400Z,13.34
2022-12-31T15:38:34.777Z,13.20
2022-12-31T15:41:15.024Z,13.35
2022-12-31T15:43:47.536Z,13.18
2022-12-31T15:46:19.812Z,13.26
2022-12-31T15:48:52.921Z,13.21
2022-12-31T15:51:24.234Z,13.26
2022-12-31T15:53:55.362Z,13.14
2022-12-31T15:56:31.775Z,13.03
2022-12-31T15:59:01.130Z,13.17
2022-12-31T16:01:31.032Z,12.95
2022-12-31T16:04:00.944Z,13.15
2022-12-31T16:06:31.447Z,13.06
2022-12-31T16:09:00.984Z,12.98
2022-12-31T16:11:30.575Z,13.10
2022-12-31T16:13:59.807Z,13.05
2022-12-31T16:16:33.998Z,12.98
2022-12-31T16:19:03.717Z,12.95
2022-12-31T16:21:35.264Z,12.88
2022-12-31T16:24:06.705Z,13.05
2022-12-31T16:26:40.244Z,12.71
2022-12-31T16:29:08.214Z,12.84
2022-12-31T16:31:36.214Z,12.87
2022-12-31T16:34:08.941Z,12.90
2022-12-31T16:36:36.894Z,12.87
2022-12-31T16:39:25.849Z,12.92
2022-12-31T16:41:54.890Z,12.93
2022-12-31T16:44:27.398Z,12.75
2022-12-31T16:46:58.314Z,12.95
2022-12-31T16:49:26.728Z,12.88
2022-12-31T16:51:57.424Z,12.85
2022-12-31T16:54:30.493Z,12.81
2022-12-31T16:56:58.965Z,12.73
2022-12-31T16:59:34.872Z,12.88
2022-12-31T17:02:04.959Z,12.90
2022-12-31T17:04:32.996Z,12.87
2022-12-31T17:07:28.767Z,12.79
2022-12-31T17:10:15.714Z,12.84
2022-12-31T17:13:25.562Z,12.88
2022-12-31T17:15:40.830Z,13.00
2022-12-31T17:18:09.912Z,13.08
2022-12-31T17:20:38.162Z,13.15
2022-12-31T17:23:08.198Z,13.07
2022-12-31T17:25:38.483Z,13.14
2022-12-31T17:28:08.734Z,13.22
2022-12-31T17:30:41.626Z,13.29
2022-12-31T17:33:28.264Z,13.37
2022-12-31T17:35:57.247Z,13.05
2022-12-31T17:38:33.676Z,13.64
2022-12-31T17:41:24.132Z,13.09
2022-12-31T17:43:53.549Z,13.15
2022-12-31T17:46:21.652Z,13.53
2022-12-31T17:48:52.864Z,13.27
2022-12-31T17:51:24.581Z,13.36
2022-12-31T17:53:52.948Z,13.30
2022-12-31T17:56:22.426Z,13.64
2022-12-31T17:58:51.736Z,13.56
2022-12-31T18:01:21.381Z,13.62
2022-12-31T18:03:50.125Z,13.55
2022-12-31T18:06:19.646Z,13.25
2022-12-31T18:08:48.093Z,13.45
2022-12-31T18:11:18.670Z,13.66
2022-12-31T18:13:48.641Z,13.77
2022-12-31T18:16:16.856Z,13.67
2022-12-31T18:18:45.360Z,13.40
2022-12-31T18:21:18.027Z,13.37
2022-12-31T18:23:47.970Z,13.30
2022-12-31T18:26:16.874Z,13.30
2022-12-31T18:28:45.448Z,13.54
2022-12-31T18:31:18.571Z,13.52
2022-12-31T18:33:48.084Z,13.55
2022-12-31T18:36:17.438Z,13.38
2022-12-31T18:38:45.824Z,13.37
2022-12-31T18:41:18.627Z,13.53
2022-12-31T18:43:47.012Z,13.50
2022-12-31T18:46:18.498Z,13.32
2022-12-31T18:48:46.717Z,13.39
2022-12-31T18:51:15.215Z,13.42
2022-12-31T18:53:43.340Z,13.31
2022-12-31T18:56:13.486Z,13.50
2022-12-31T18:58:41.851Z,13.38
2022-12-31T19:01:25.611Z,13.48
2022-12-31T19:03:54.050Z,13.37
2022-12-31T19:06:22.001Z,13.64
2022-12-31T19:08:50.357Z,13.59
2022-12-31T19:11:18.937Z,13.64
2022-12-31T19:13:47.193Z,13.45
2022-12-31T19:16:19.182Z,13.50
2022-12-31T19:18:52.419Z,13.58
2022-12-31T19:21:24.528Z,13.57
2022-12-31T19:24:01.314Z,13.46
2022-12-31T19:26:30.588Z,13.60
2022-12-31T19:29:27.997Z,13.45
2022-12-31T19:32:04.411Z,13.57
2022-12-31T19:34:39.730Z,13.63
2022-12-31T19:37:14.947Z,13.58
2022-12-31T19:39:50.408Z,13.57
2022-12-31T19:42:24.389Z,13.61
2022-12-31T19:44:59.556Z,13.47
2022-12-31T19:47:39.288Z,13.21
2022-12-31T19:50:14.467Z,13.50
2022-12-31T19:52:43.428Z,13.62
2022-12-31T19:55:20.145Z,13.54
2022-12-31T19:57:50.742Z,13.55
2022-12-31T20:00:23.212Z,13.53
2022-12-31T20:03:02.523Z,13.64
2022-12-31T20:05:35.050Z,13.44
2022-12-31T20:08:12.440Z,13.71
2022-12-31T20:10:51.317Z,13.77
2022-12-31T20:13:26.409Z,13.87
2022-12-31T20:16:03.826Z,13.71
2022-12-31T20:18:34.733Z,13.54
2022-12-31T20:21:05.557Z,13.73
2022-12-31T20:23:41.802Z,13.71
2022-12-31T20:26:15.298Z,13.71
2022-12-31T20:28:58.400Z,13.84
2022-12-31T20:31:32.249Z,13.63
2022-12-31T20:34:01.665Z,13.97
2022-12-31T20:36:36.271Z,13.90
2022-12-31T20:39:13.211Z,14.07
2022-12-31T20:41:49.789Z,13.80
2022-12-31T20:44:29.887Z,13.92
2022-12-31T20:47:13.297Z,13.79
2022-12-31T20:50:10.491Z,13.74
2022-12-31T20:52:40.773Z,13.85
2022-12-31T20:55:22.399Z,13.72
2022-12-31T20:57:55.299Z,13.94
2022-12-31T21:00:33.784Z,13.99
2022-12-31T21:03:18.811Z,13.72
2022-12-31T21:06:10.851Z,13.98
2022-12-31T21:09:00.890Z,14.14
2022-12-31T21:11:56.494Z,13.95
2022-12-31T21:14:42.807Z,13.88
2022-12-31T21:17:12.995Z,13.88
2022-12-31T21:19:41.206Z,13.73
2022-12-31T21:22:09.478Z,13.61
2022-12-31T21:24:39.221Z,13.99
2022-12-31T21:27:07.463Z,14.21
2022-12-31T21:29:41.859Z,13.95
2022-12-31T21:32:18.588Z,14.10
2022-12-31T21:35:06.400Z,13.97
2022-12-31T21:37:58.449Z,14.02
2022-12-31T21:40:24.840Z,14.18
2022-12-31T21:42:53.282Z,13.95
2022-12-31T21:45:21.281Z,13.99
2022-12-31T21:48:06.924Z,14.08
2022-12-31T21:50:35.313Z,14.15
2022-12-31T21:53:03.784Z,14.31
2022-12-31T21:55:50.631Z,14.29
2022-12-31T21:58:27.764Z,14.21
2022-12-31T22:01:16.289Z,14.21
2022-12-31T22:03:44.938Z,13.84
2022-12-31T22:06:42.523Z,14.21
2022-12-31T22:09:10.766Z,14.16
2022-12-31T22:11:40.286Z,13.92
2022-12-31T22:14:10.897Z,14.10
2022-12-31T22:16:39.334Z,14.27
2022-12-31T22:19:10.505Z,14.09
2022-12-31T22:21:58.512Z,14.17
2022-12-31T22:24:33.115Z,14.24
2022-12-31T22:27:28.329Z,14.10
2022-12-31T22:29:59.398Z,14.23
2022-12-31T22:32:27.577Z,14.39
2022-12-31T22:38:11.909Z,14.36
2022-12-31T22:42:31.338Z,14.04
2022-12-31T22:44:42.672Z,14.07
2022-12-31T22:50:21.939Z,14.31
2022-12-31T22:52:50.044Z,13.92
2022-12-31T22:55:25.353Z,14.63
2022-12-31T22:57:53.546Z,14.03
2022-12-31T23:00:38.921Z,14.18
2022-12-31T23:03:10.879Z,14.33
2022-12-31T23:05:41.602Z,14.35
2022-12-31T23:08:17.202Z,14.62
2022-12-31T23:11:00.222Z,14.22
2022-12-31T23:13:50.538Z,14.24
2022-12-31T23:20:54.759Z,14.48
2022-12-31T23:48:15.590Z,14.35
2022-12-31T23:50:52.436Z,14.53
2022-12-31T23:53:21.757Z,14.45
2022-12-31T23:55:51.433Z,14.94
2022-12-31T23:58:25.212Z,14.71
